sensor_id;sensor_type;location;lat;lon;timestamp;pressure;altitude;pressure_sealevel;temperature;humidity
36964;BME280;22878;48.616;35.326;2022-12-07T00:01:12;101978.44;;;-4.86;100.00
36964;BME280;22878;48.616;35.326;2022-12-07T00:03:44;101975.21;;;-4.84;100.00
36964;BME280;22878;48.616;35.326;2022-12-07T00:06:13;101976.18;;;-4.85;100.00
36964;BME280;22878;48.616;35.326;2022-12-07T00:08:40;101984.25;;;-4.77;100.00
36964;BME280;22878;48.616;35.326;2022-12-07T00:11:08;101980.31;;;-4.77;100.00
36964;BME280;22878;48.616;35.326;2022-12-07T00:13:36;101979.95;;;-4.72;100.00
36964;BME280;22878;48.616;35.326;2022-12-07T00:16:06;101974.20;;;-4.72;100.00
36964;BME280;22878;48.616;35.326;2022-12-07T00:18:34;101978.87;;;-4.70;100.00
36964;BME280;22878;48.616;35.326;2022-12-07T00:21:03;101975.73;;;-4.64;100.00
36964;BME280;22878;48.616;35.326;2022-12-07T00:23:30;101966.84;;;-4.57;100.00
36964;BME280;22878;48.616;35.326;2022-12-07T00:26:05;101977.00;;;-4.52;100.00
36964;BME280;22878;48.616;35.326;2022-12-07T00:28:32;101960.48;;;-4.49;100.00
36964;BME280;22878;48.616;35.326;2022-12-07T00:31:06;101958.16;;;-4.42;100.00
36964;BME280;22878;48.616;35.326;2022-12-07T00:33:34;101952.09;;;-4.48;100.00
36964;BME280;22878;48.616;35.326;2022-12-07T00:36:01;101958.87;;;-4.40;100.00
36964;BME280;22878;48.616;35.326;2022-12-07T00:38:30;101967.11;;;-4.39;100.00
36964;BME280;22878;48.616;35.326;2022-12-07T00:41:02;101971.17;;;-4.35;100.00
36964;BME280;22878;48.616;35.326;2022-12-07T00:43:33;101971.86;;;-4.33;100.00
36964;BME280;22878;48.616;35.326;2022-12-07T00:45:59;101965.86;;;-4.29;100.00
36964;BME280;22878;48.616;35.326;2022-12-07T00:48:25;101959.65;;;-4.28;100.00
36964;BME280;22878;48.616;35.326;2022-12-07T00:50:52;101962.13;;;-4.27;100.00
36964;BME280;22878;48.616;35.326;2022-12-07T00:53:18;101959.88;;;-4.26;100.00
36964;BME280;22878;48.616;35.326;2022-12-07T00:55:45;101962.02;;;-4.25;100.00
36964;BME280;22878;48.616;35.326;2022-12-07T00:58:11;101949.31;;;-4.20;100.00
36964;BME280;22878;48.616;35.326;2022-12-07T01:00:40;101957.09;;;-4.24;100.00
36964;BME280;22878;48.616;35.326;2022-12-07T01:03:09;101948.37;;;-4.25;100.00
36964;BME280;22878;48.616;35.326;2022-12-07T01:05:36;101931.72;;;-4.20;100.00
36964;BME280;22878;48.616;35.326;2022-12-07T01:08:03;101954.20;;;-4.21;100.00
36964;BME280;22878;48.616;35.326;2022-12-07T01:10:29;101943.80;;;-4.17;100.00
36964;BME280;22878;48.616;35.326;2022-12-07T01:12:57;101939.84;;;-4.17;100.00
36964;BME280;22878;48.616;35.326;2022-12-07T01:15:24;101933.00;;;-4.14;100.00
36964;BME280;22878;48.616;35.326;2022-12-07T01:17:51;101930.86;;;-4.15;100.00
36964;BME280;22878;48.616;35.326;2022-12-07T01:20:17;101925.94;;;-4.14;100.00
36964;BME280;22878;48.616;35.326;2022-12-07T01:22:43;101923.64;;;-4.13;100.00
36964;BME280;22878;48.616;35.326;2022-12-07T01:25:11;101917.55;;;-4.13;100.00
36964;BME280;22878;48.616;35.326;2022-12-07T01:27:37;101922.55;;;-4.10;100.00
36964;BME280;22878;48.616;35.326;2022-12-07T01:30:05;101904.39;;;-4.13;100.00
36964;BME280;22878;48.616;35.326;2022-12-07T01:32:33;101903.03;;;-4.07;100.00
36964;BME280;22878;48.616;35.326;2022-12-07T01:34:59;101912.77;;;-4.14;100.00
36964;BME280;22878;48.616;35.326;2022-12-07T01:37:25;101896.38;;;-4.12;100.00
36964;BME280;22878;48.616;35.326;2022-12-07T01:39:51;101900.59;;;-4.15;100.00
36964;BME280;22878;48.616;35.326;2022-12-07T01:42:18;101877.77;;;-4.20;100.00
36964;BME280;22878;48.616;35.326;2022-12-07T01:47:48;101880.97;;;-4.16;100.00
36964;BME280;22878;48.616;35.326;2022-12-07T01:50:20;101880.97;;;-4.16;100.00
36964;BME280;22878;48.616;35.326;2022-12-07T01:52:49;101881.57;;;-4.18;100.00
36964;BME280;22878;48.616;35.326;2022-12-07T01:55:17;101885.18;;;-4.19;100.00
36964;BME280;22878;48.616;35.326;2022-12-07T01:57:46;101891.16;;;-4.17;100.00
36964;BME280;22878;48.616;35.326;2022-12-07T02:00:15;101887.73;;;-4.23;100.00
36964;BME280;22878;48.616;35.326;2022-12-07T02:02:44;101882.28;;;-4.16;100.00
36964;BME280;22878;48.616;35.326;2022-12-07T02:05:19;101885.10;;;-4.23;100.00
36964;BME280;22878;48.616;35.326;2022-12-07T02:07:47;101892.14;;;-4.24;100.00
36964;BME280;22878;48.616;35.326;2022-12-07T02:10:19;101893.19;;;-4.21;100.00
36964;BME280;22878;48.616;35.326;2022-12-07T02:15:25;101889.39;;;-4.22;100.00
36964;BME280;22878;48.616;35.326;2022-12-07T02:18:01;101902.25;;;-4.14;100.00
36964;BME280;22878;48.616;35.326;2022-12-07T02:23:31;101887.09;;;-4.21;100.00
36964;BME280;22878;48.616;35.326;2022-12-07T02:26:13;101886.98;;;-4.20;100.00
36964;BME280;22878;48.616;35.326;2022-12-07T02:31:25;101892.09;;;-4.18;100.00
36964;BME280;22878;48.616;35.326;2022-12-07T02:34:02;101897.14;;;-4.21;100.00
36964;BME280;22878;48.616;35.326;2022-12-07T02:36:32;101890.74;;;-4.28;100.00
36964;BME280;22878;48.616;35.326;2022-12-07T02:41:39;101906.16;;;-4.23;100.00
36964;BME280;22878;48.616;35.326;2022-12-07T02:44:08;101897.89;;;-4.24;100.00
36964;BME280;22878;48.616;35.326;2022-12-07T02:46:44;101894.58;;;-4.26;100.00
36964;BME280;22878;48.616;35.326;2022-12-07T02:49:12;101903.07;;;-4.28;100.00
36964;BME280;22878;48.616;35.326;2022-12-07T02:51:40;101889.80;;;-4.32;100.00
36964;BME280;22878;48.616;35.326;2022-12-07T02:54:12;101891.27;;;-4.34;100.00
36964;BME280;22878;48.616;35.326;2022-12-07T03:05:54;101895.73;;;-4.40;100.00
36964;BME280;22878;48.616;35.326;2022-12-07T03:08:41;101887.47;;;-4.41;100.00
36964;BME280;22878;48.616;35.326;2022-12-07T03:11:16;101888.30;;;-4.35;100.00
36964;BME280;22878;48.616;35.326;2022-12-07T03:16:35;101882.02;;;-4.44;100.00
36964;BME280;22878;48.616;35.326;2022-12-07T03:19:09;101881.91;;;-4.48;100.00
36964;BME280;22878;48.616;35.326;2022-12-07T03:21:43;101885.10;;;-4.44;100.00
36964;BME280;22878;48.616;35.326;2022-12-07T03:24:15;101882.44;;;-4.39;100.00
36964;BME280;22878;48.616;35.326;2022-12-07T03:29:22;101882.47;;;-4.44;100.00
36964;BME280;22878;48.616;35.326;2022-12-07T03:32:12;101883.90;;;-4.40;100.00
36964;BME280;22878;48.616;35.326;2022-12-07T03:37:51;101876.61;;;-4.42;100.00
36964;BME280;22878;48.616;35.326;2022-12-07T03:40:41;101863.72;;;-4.45;100.00
36964;BME280;22878;48.616;35.326;2022-12-07T03:43:12;101869.58;;;-4.47;100.00
36964;BME280;22878;48.616;35.326;2022-12-07T03:45:43;101876.87;;;-4.45;100.00
36964;BME280;22878;48.616;35.326;2022-12-07T03:51:10;101862.09;;;-4.52;100.00
36964;BME280;22878;48.616;35.326;2022-12-07T03:53:48;101853.11;;;-4.49;100.00
36964;BME280;22878;48.616;35.326;2022-12-07T03:56:20;101850.48;;;-4.49;100.00
36964;BME280;22878;48.616;35.326;2022-12-07T03:58:48;101850.26;;;-4.52;100.00
36964;BME280;22878;48.616;35.326;2022-12-07T04:01:14;101859.66;;;-4.44;100.00
36964;BME280;22878;48.616;35.326;2022-12-07T04:03:44;101864.51;;;-4.39;100.00
36964;BME280;22878;48.616;35.326;2022-12-07T04:06:08;101845.56;;;-4.48;100.00
36964;BME280;22878;48.616;35.326;2022-12-07T04:08:34;101841.13;;;-4.48;100.00
36964;BME280;22878;48.616;35.326;2022-12-07T04:11:01;101844.85;;;-4.50;100.00
36964;BME280;22878;48.616;35.326;2022-12-07T04:13:27;101851.20;;;-4.53;100.00
36964;BME280;22878;48.616;35.326;2022-12-07T04:15:53;101859.80;;;-4.51;100.00
36964;BME280;22878;48.616;35.326;2022-12-07T04:18:19;101853.98;;;-4.54;100.00
36964;BME280;22878;48.616;35.326;2022-12-07T04:20:45;101847.97;;;-4.51;100.00
36964;BME280;22878;48.616;35.326;2022-12-07T04:23:12;101845.86;;;-4.57;100.00
36964;BME280;22878;48.616;35.326;2022-12-07T04:25:37;101844.06;;;-4.57;100.00
36964;BME280;22878;48.616;35.326;2022-12-07T04:28:03;101856.00;;;-4.52;100.00
36964;BME280;22878;48.616;35.326;2022-12-07T04:30:30;101850.37;;;-4.53;100.00
36964;BME280;22878;48.616;35.326;2022-12-07T04:32:55;101839.37;;;-4.53;100.00
36964;BME280;22878;48.616;35.326;2022-12-07T04:35:21;101847.32;;;-4.59;100.00
36964;BME280;22878;48.616;35.326;2022-12-07T04:37:47;101846.95;;;-4.60;100.00
36964;BME280;22878;48.616;35.326;2022-12-07T04:40:13;101856.16;;;-4.60;100.00
36964;BME280;22878;48.616;35.326;2022-12-07T04:42:39;101853.41;;;-4.58;100.00
36964;BME280;22878;48.616;35.326;2022-12-07T04:45:07;101849.20;;;-4.55;100.00
36964;BME280;22878;48.616;35.326;2022-12-07T04:47:33;101843.45;;;-4.54;100.00
36964;BME280;22878;48.616;35.326;2022-12-07T04:49:59;101841.34;;;-4.61;100.00
36964;BME280;22878;48.616;35.326;2022-12-07T04:52:27;101846.50;;;-4.65;100.00
36964;BME280;22878;48.616;35.326;2022-12-07T04:54:53;101829.20;;;-4.67;100.00
36964;BME280;22878;48.616;35.326;2022-12-07T04:57:18;101829.89;;;-4.65;100.00
36964;BME280;22878;48.616;35.326;2022-12-07T04:59:44;101840.15;;;-4.62;100.00
36964;BME280;22878;48.616;35.326;2022-12-07T05:02:10;101849.27;;;-4.66;100.00
36964;BME280;22878;48.616;35.326;2022-12-07T05:04:36;101859.82;;;-4.72;100.00
36964;BME280;22878;48.616;35.326;2022-12-07T05:07:02;101844.05;;;-4.72;100.00
36964;BME280;22878;48.616;35.326;2022-12-07T05:09:28;101838.07;;;-4.74;100.00
36964;BME280;22878;48.616;35.326;2022-12-07T05:11:54;101834.92;;;-4.68;100.00
36964;BME280;22878;48.616;35.326;2022-12-07T05:14:20;101836.33;;;-4.79;100.00
36964;BME280;22878;48.616;35.326;2022-12-07T05:16:48;101838.93;;;-4.73;100.00
36964;BME280;22878;48.616;35.326;2022-12-07T05:19:16;101842.73;;;-4.72;100.00
36964;BME280;22878;48.616;35.326;2022-12-07T05:21:44;101834.13;;;-4.74;100.00
36964;BME280;22878;48.616;35.326;2022-12-07T05:24:12;101833.19;;;-4.73;100.00
36964;BME280;22878;48.616;35.326;2022-12-07T05:26:38;101821.58;;;-4.70;100.00
36964;BME280;22878;48.616;35.326;2022-12-07T05:29:05;101817.97;;;-4.69;100.00
36964;BME280;22878;48.616;35.326;2022-12-07T05:31:31;101818.34;;;-4.74;100.00
36964;BME280;22878;48.616;35.326;2022-12-07T05:33:57;101834.73;;;-4.70;100.00
36964;BME280;22878;48.616;35.326;2022-12-07T05:36:23;101836.30;;;-4.73;100.00
36964;BME280;22878;48.616;35.326;2022-12-07T05:38:49;101842.95;;;-4.69;100.00
36964;BME280;22878;48.616;35.326;2022-12-07T05:41:17;101836.72;;;-4.68;100.00
36964;BME280;22878;48.616;35.326;2022-12-07T05:44:02;101846.41;;;-4.69;100.00
36964;BME280;22878;48.616;35.326;2022-12-07T05:46:28;101838.22;;;-4.75;100.00
36964;BME280;22878;48.616;35.326;2022-12-07T05:48:54;101837.92;;;-4.67;100.00
36964;BME280;22878;48.616;35.326;2022-12-07T05:51:20;101825.12;;;-4.66;100.00
36964;BME280;22878;48.616;35.326;2022-12-07T05:53:46;101826.20;;;-4.68;100.00
36964;BME280;22878;48.616;35.326;2022-12-07T05:56:12;101827.30;;;-4.71;100.00
36964;BME280;22878;48.616;35.326;2022-12-07T05:58:39;101835.30;;;-4.67;100.00
36964;BME280;22878;48.616;35.326;2022-12-07T06:01:23;101827.14;;;-4.64;100.00
36964;BME280;22878;48.616;35.326;2022-12-07T06:03:49;101832.11;;;-4.55;100.00
36964;BME280;22878;48.616;35.326;2022-12-07T06:06:15;101831.39;;;-4.57;100.00
36964;BME280;22878;48.616;35.326;2022-12-07T06:08:41;101828.54;;;-4.60;100.00
36964;BME280;22878;48.616;35.326;2022-12-07T06:11:07;101835.30;;;-4.67;100.00
36964;BME280;22878;48.616;35.326;2022-12-07T06:13:52;101845.33;;;-4.66;100.00
36964;BME280;22878;48.616;35.326;2022-12-07T06:16:18;101844.58;;;-4.63;100.00
36964;BME280;22878;48.616;35.326;2022-12-07T06:18:44;101838.61;;;-4.65;100.00
36964;BME280;22878;48.616;35.326;2022-12-07T06:21:10;101831.09;;;-4.64;100.00
36964;BME280;22878;48.616;35.326;2022-12-07T06:23:36;101836.35;;;-4.64;100.00
36964;BME280;22878;48.616;35.326;2022-12-07T06:26:02;101840.27;;;-4.58;100.00
36964;BME280;22878;48.616;35.326;2022-12-07T06:28:28;101848.64;;;-4.59;100.00
36964;BME280;22878;48.616;35.326;2022-12-07T06:30:59;101846.00;;;-4.59;100.00
36964;BME280;22878;48.616;35.326;2022-12-07T06:33:27;101851.13;;;-4.57;100.00
36964;BME280;22878;48.616;35.326;2022-12-07T06:35:53;101853.38;;;-4.52;100.00
36964;BME280;22878;48.616;35.326;2022-12-07T06:38:20;101850.30;;;-4.58;100.00
36964;BME280;22878;48.616;35.326;2022-12-07T06:40:46;101856.53;;;-4.59;100.00
36964;BME280;22878;48.616;35.326;2022-12-07T06:43:12;101862.95;;;-4.57;100.00
36964;BME280;22878;48.616;35.326;2022-12-07T06:45:38;101860.67;;;-4.56;100.00
36964;BME280;22878;48.616;35.326;2022-12-07T06:48:04;101865.06;;;-4.51;100.00
36964;BME280;22878;48.616;35.326;2022-12-07T06:50:30;101852.17;;;-4.54;100.00
36964;BME280;22878;48.616;35.326;2022-12-07T06:52:56;101857.78;;;-4.53;100.00
36964;BME280;22878;48.616;35.326;2022-12-07T06:55:22;101852.28;;;-4.50;100.00
36964;BME280;22878;48.616;35.326;2022-12-07T06:57:48;101852.48;;;-4.47;100.00
36964;BME280;22878;48.616;35.326;2022-12-07T07:00:15;101843.16;;;-4.46;100.00
36964;BME280;22878;48.616;35.326;2022-12-07T07:02:41;101852.33;;;-4.40;100.00
36964;BME280;22878;48.616;35.326;2022-12-07T07:05:08;101858.61;;;-4.31;100.00
36964;BME280;22878;48.616;35.326;2022-12-07T07:07:34;101862.18;;;-4.32;100.00
36964;BME280;22878;48.616;35.326;2022-12-07T07:10:00;101855.22;;;-4.28;100.00
36964;BME280;22878;48.616;35.326;2022-12-07T07:12:26;101851.16;;;-4.26;100.00
36964;BME280;22878;48.616;35.326;2022-12-07T07:14:52;101854.17;;;-4.31;100.00
36964;BME280;22878;48.616;35.326;2022-12-07T07:17:18;101844.96;;;-4.31;100.00
36964;BME280;22878;48.616;35.326;2022-12-07T07:19:44;101846.13;;;-4.29;100.00
36964;BME280;22878;48.616;35.326;2022-12-07T07:22:11;101839.05;;;-4.23;100.00
36964;BME280;22878;48.616;35.326;2022-12-07T07:24:37;101844.50;;;-4.21;100.00
36964;BME280;22878;48.616;35.326;2022-12-07T07:27:03;101841.31;;;-4.24;100.00
36964;BME280;22878;48.616;35.326;2022-12-07T07:29:29;101844.61;;;-4.17;100.00
36964;BME280;22878;48.616;35.326;2022-12-07T07:31:55;101851.27;;;-4.13;100.00
36964;BME280;22878;48.616;35.326;2022-12-07T07:34:21;101844.16;;;-4.06;100.00
36964;BME280;22878;48.616;35.326;2022-12-07T07:36:48;101849.83;;;-4.11;100.00
36964;BME280;22878;48.616;35.326;2022-12-07T07:39:14;101846.44;;;-4.07;100.00
36964;BME280;22878;48.616;35.326;2022-12-07T07:41:40;101859.94;;;-4.06;100.00
36964;BME280;22878;48.616;35.326;2022-12-07T07:44:06;101849.00;;;-4.12;100.00
36964;BME280;22878;48.616;35.326;2022-12-07T07:46:32;101837.77;;;-4.14;100.00
36964;BME280;22878;48.616;35.326;2022-12-07T07:48:58;101844.69;;;-4.13;100.00
36964;BME280;22878;48.616;35.326;2022-12-07T07:51:24;101828.77;;;-4.11;100.00
36964;BME280;22878;48.616;35.326;2022-12-07T07:53:50;101838.50;;;-4.02;100.00
36964;BME280;22878;48.616;35.326;2022-12-07T07:56:16;101824.90;;;-4.07;100.00
36964;BME280;22878;48.616;35.326;2022-12-07T07:58:42;101833.23;;;-4.02;100.00
36964;BME280;22878;48.616;35.326;2022-12-07T08:01:09;101831.04;;;-3.97;100.00
36964;BME280;22878;48.616;35.326;2022-12-07T08:03:35;101826.50;;;-4.00;100.00
36964;BME280;22878;48.616;35.326;2022-12-07T08:06:03;101828.97;;;-3.93;100.00
36964;BME280;22878;48.616;35.326;2022-12-07T08:08:29;101818.66;;;-3.91;100.00
36964;BME280;22878;48.616;35.326;2022-12-07T08:10:55;101824.80;;;-3.96;100.00
36964;BME280;22878;48.616;35.326;2022-12-07T08:13:22;101821.51;;;-3.88;100.00
36964;BME280;22878;48.616;35.326;2022-12-07T08:15:48;101823.45;;;-3.80;100.00
36964;BME280;22878;48.616;35.326;2022-12-07T08:18:15;101823.81;;;-3.79;100.00
36964;BME280;22878;48.616;35.326;2022-12-07T08:20:41;101819.50;;;-3.80;100.00
36964;BME280;22878;48.616;35.326;2022-12-07T08:23:09;101824.44;;;-3.72;100.00
36964;BME280;22878;48.616;35.326;2022-12-07T08:25:36;101804.62;;;-3.76;100.00
36964;BME280;22878;48.616;35.326;2022-12-07T08:28:02;101800.02;;;-3.74;100.00
36964;BME280;22878;48.616;35.326;2022-12-07T08:30:29;101799.51;;;-3.68;100.00
36964;BME280;22878;48.616;35.326;2022-12-07T08:32:56;101789.52;;;-3.64;100.00
36964;BME280;22878;48.616;35.326;2022-12-07T08:35:22;101787.04;;;-3.56;100.00
36964;BME280;22878;48.616;35.326;2022-12-07T08:37:49;101779.89;;;-3.40;100.00
36964;BME280;22878;48.616;35.326;2022-12-07T08:40:15;101785.59;;;-3.35;100.00
36964;BME280;22878;48.616;35.326;2022-12-07T08:42:43;101786.14;;;-3.41;100.00
36964;BME280;22878;48.616;35.326;2022-12-07T08:45:14;101783.63;;;-3.43;100.00
36964;BME280;22878;48.616;35.326;2022-12-07T08:47:48;101785.50;;;-3.39;100.00
36964;BME280;22878;48.616;35.326;2022-12-07T08:50:16;101776.98;;;-3.37;100.00
36964;BME280;22878;48.616;35.326;2022-12-07T08:52:43;101776.69;;;-3.24;100.00
36964;BME280;22878;48.616;35.326;2022-12-07T08:55:11;101784.38;;;-3.27;100.00
36964;BME280;22878;48.616;35.326;2022-12-07T08:57:38;101779.27;;;-3.28;100.00
36964;BME280;22878;48.616;35.326;2022-12-07T09:00:06;101779.73;;;-3.38;100.00
36964;BME280;22878;48.616;35.326;2022-12-07T09:02:33;101777.10;;;-3.38;100.00
36964;BME280;22878;48.616;35.326;2022-12-07T09:04:59;101771.00;;;-3.39;100.00
36964;BME280;22878;48.616;35.326;2022-12-07T09:07:26;101769.90;;;-3.36;100.00
36964;BME280;22878;48.616;35.326;2022-12-07T09:09:52;101762.08;;;-3.32;100.00
36964;BME280;22878;48.616;35.326;2022-12-07T09:14:46;101762.55;;;-3.23;100.00
36964;BME280;22878;48.616;35.326;2022-12-07T09:17:12;101755.32;;;-3.11;100.00
36964;BME280;22878;48.616;35.326;2022-12-07T09:19:39;101737.08;;;-3.09;100.00
36964;BME280;22878;48.616;35.326;2022-12-07T09:22:07;101735.80;;;-3.05;100.00
36964;BME280;22878;48.616;35.326;2022-12-07T09:24:34;101736.47;;;-2.93;100.00
36964;BME280;22878;48.616;35.326;2022-12-07T09:27:00;101739.90;;;-2.83;100.00
36964;BME280;22878;48.616;35.326;2022-12-07T09:29:26;101741.25;;;-2.92;100.00
36964;BME280;22878;48.616;35.326;2022-12-07T09:31:52;101736.68;;;-3.00;100.00
36964;BME280;22878;48.616;35.326;2022-12-07T09:34:18;101737.95;;;-3.04;100.00
36964;BME280;22878;48.616;35.326;2022-12-07T09:36:45;101740.09;;;-2.94;100.00
36964;BME280;22878;48.616;35.326;2022-12-07T09:39:12;101736.80;;;-2.92;100.00
36964;BME280;22878;48.616;35.326;2022-12-07T09:41:40;101733.59;;;-2.86;100.00
36964;BME280;22878;48.616;35.326;2022-12-07T09:44:11;101733.22;;;-2.77;100.00
36964;BME280;22878;48.616;35.326;2022-12-07T09:46:41;101715.94;;;-2.76;100.00
36964;BME280;22878;48.616;35.326;2022-12-07T09:51:45;101714.58;;;-2.66;100.00
36964;BME280;22878;48.616;35.326;2022-12-07T09:54:16;101720.88;;;-2.63;100.00
36964;BME280;22878;48.616;35.326;2022-12-07T09:56:43;101716.59;;;-2.64;100.00
36964;BME280;22878;48.616;35.326;2022-12-07T09:59:17;101720.79;;;-2.57;100.00
36964;BME280;22878;48.616;35.326;2022-12-07T10:06:47;101720.61;;;-2.32;100.00
36964;BME280;22878;48.616;35.326;2022-12-07T10:09:15;101725.53;;;-2.33;100.00
36964;BME280;22878;48.616;35.326;2022-12-07T10:14:34;101709.49;;;-2.36;100.00
36964;BME280;22878;48.616;35.326;2022-12-07T10:17:02;101712.83;;;-2.34;100.00
36964;BME280;22878;48.616;35.326;2022-12-07T10:19:32;101704.48;;;-2.29;100.00
36964;BME280;22878;48.616;35.326;2022-12-07T10:24:33;101697.61;;;-2.36;100.00
36964;BME280;22878;48.616;35.326;2022-12-07T10:26:59;101695.27;;;-2.39;100.00
36964;BME280;22878;48.616;35.326;2022-12-07T10:29:31;101689.06;;;-2.34;100.00
36964;BME280;22878;48.616;35.326;2022-12-07T10:32:26;101689.06;;;-2.34;100.00
36964;BME280;22878;48.616;35.326;2022-12-07T10:34:42;101690.42;;;-2.30;100.00
36964;BME280;22878;48.616;35.326;2022-12-07T10:37:17;101677.84;;;-2.18;100.00
36964;BME280;22878;48.616;35.326;2022-12-07T10:39:50;101678.45;;;-2.06;100.00
36964;BME280;22878;48.616;35.326;2022-12-07T10:42:26;101677.41;;;-1.95;100.00
36964;BME280;22878;48.616;35.326;2022-12-07T10:50:55;101672.66;;;-1.92;100.00
36964;BME280;22878;48.616;35.326;2022-12-07T10:53:36;101671.08;;;-2.02;100.00
36964;BME280;22878;48.616;35.326;2022-12-07T10:59:03;101664.31;;;-2.19;100.00
36964;BME280;22878;48.616;35.326;2022-12-07T11:01:51;101666.45;;;-2.18;100.00
36964;BME280;22878;48.616;35.326;2022-12-07T11:07:14;101659.01;;;-2.37;100.00
36964;BME280;22878;48.616;35.326;2022-12-07T11:15:28;101664.26;;;-2.41;100.00
36964;BME280;22878;48.616;35.326;2022-12-07T11:21:11;101658.25;;;-2.47;100.00
36964;BME280;22878;48.616;35.326;2022-12-07T11:26:45;101659.04;;;-2.33;100.00
36964;BME280;22878;48.616;35.326;2022-12-07T11:32:35;101658.01;;;-2.22;100.00
36964;BME280;22878;48.616;35.326;2022-12-07T11:38:22;101658.20;;;-2.19;100.00
36964;BME280;22878;48.616;35.326;2022-12-07T11:40:51;101649.38;;;-2.10;100.00
36964;BME280;22878;48.616;35.326;2022-12-07T11:43:28;101641.87;;;-2.19;100.00
36964;BME280;22878;48.616;35.326;2022-12-07T11:46:08;101648.80;;;-2.18;100.00
36964;BME280;22878;48.616;35.326;2022-12-07T11:48:41;101649.20;;;-2.26;100.00
36964;BME280;22878;48.616;35.326;2022-12-07T11:51:13;101645.84;;;-2.33;100.00
36964;BME280;22878;48.616;35.326;2022-12-07T11:53:56;101638.16;;;-2.44;100.00
36964;BME280;22878;48.616;35.326;2022-12-07T11:56:28;101640.21;;;-2.52;100.00
36964;BME280;22878;48.616;35.326;2022-12-07T11:59:13;101632.40;;;-2.57;100.00
36964;BME280;22878;48.616;35.326;2022-12-07T12:01:56;101633.87;;;-2.59;100.00
36964;BME280;22878;48.616;35.326;2022-12-07T12:07:31;101643.05;;;-2.63;100.00
36964;BME280;22878;48.616;35.326;2022-12-07T12:13:03;101631.04;;;-2.75;100.00
36964;BME280;22878;48.616;35.326;2022-12-07T12:21:35;101626.26;;;-2.76;100.00
36964;BME280;22878;48.616;35.326;2022-12-07T12:24:10;101633.13;;;-2.65;100.00
36964;BME280;22878;48.616;35.326;2022-12-07T12:26:39;101628.05;;;-2.62;100.00
36964;BME280;22878;48.616;35.326;2022-12-07T12:29:21;101631.27;;;-2.68;100.00
36964;BME280;22878;48.616;35.326;2022-12-07T12:32:07;101629.42;;;-2.72;100.00
36964;BME280;22878;48.616;35.326;2022-12-07T12:35:00;101624.15;;;-2.72;100.00
36964;BME280;22878;48.616;35.326;2022-12-07T12:42:50;101620.88;;;-2.70;100.00
36964;BME280;22878;48.616;35.326;2022-12-07T12:45:25;101625.34;;;-2.70;100.00
36964;BME280;22878;48.616;35.326;2022-12-07T12:47:55;101629.66;;;-2.65;100.00
36964;BME280;22878;48.616;35.326;2022-12-07T12:50:37;101631.54;;;-2.62;100.00
36964;BME280;22878;48.616;35.326;2022-12-07T12:53:24;101638.66;;;-2.58;100.00
36964;BME280;22878;48.616;35.326;2022-12-07T12:58:38;101631.77;;;-2.55;100.00
36964;BME280;22878;48.616;35.326;2022-12-07T13:03:55;101641.62;;;-2.57;100.00
36964;BME280;22878;48.616;35.326;2022-12-07T13:08:58;101635.83;;;-2.61;100.00
36964;BME280;22878;48.616;35.326;2022-12-07T13:20:04;101629.76;;;-2.71;100.00
36964;BME280;22878;48.616;35.326;2022-12-07T13:25:12;101624.54;;;-2.81;100.00
36964;BME280;22878;48.616;35.326;2022-12-07T13:28:16;101631.30;;;-2.82;100.00
36964;BME280;22878;48.616;35.326;2022-12-07T13:31:00;101638.02;;;-2.84;100.00
36964;BME280;22878;48.616;35.326;2022-12-07T13:33:27;101642.97;;;-2.85;100.00
36964;BME280;22878;48.616;35.326;2022-12-07T13:35:54;101648.86;;;-2.87;100.00
36964;BME280;22878;48.616;35.326;2022-12-07T13:38:33;101654.92;;;-2.90;100.00
36964;BME280;22878;48.616;35.326;2022-12-07T13:43:52;101653.73;;;-2.92;100.00
36964;BME280;22878;48.616;35.326;2022-12-07T13:49:30;101646.36;;;-2.88;100.00
36964;BME280;22878;48.616;35.326;2022-12-07T13:52:13;101652.78;;;-2.91;100.00
36964;BME280;22878;48.616;35.326;2022-12-07T13:57:11;101669.35;;;-2.94;100.00
36964;BME280;22878;48.616;35.326;2022-12-07T13:59:38;101668.23;;;-2.92;100.00
36964;BME280;22878;48.616;35.326;2022-12-07T14:02:23;101665.67;;;-2.88;100.00
36964;BME280;22878;48.616;35.326;2022-12-07T14:04:51;101673.63;;;-2.84;100.00
36964;BME280;22878;48.616;35.326;2022-12-07T14:09:56;101667.33;;;-2.87;100.00
36964;BME280;22878;48.616;35.326;2022-12-07T14:12:28;101664.06;;;-2.85;100.00
36964;BME280;22878;48.616;35.326;2022-12-07T14:14:56;101675.73;;;-2.87;100.00
36964;BME280;22878;48.616;35.326;2022-12-07T14:17:25;101666.14;;;-2.88;100.00
36964;BME280;22878;48.616;35.326;2022-12-07T14:19:57;101662.47;;;-2.91;100.00
36964;BME280;22878;48.616;35.326;2022-12-07T14:22:35;101663.63;;;-2.94;100.00
36964;BME280;22878;48.616;35.326;2022-12-07T14:27:58;101667.87;;;-2.97;100.00
36964;BME280;22878;48.616;35.326;2022-12-07T14:30:30;101660.48;;;-2.93;100.00
36964;BME280;22878;48.616;35.326;2022-12-07T14:33:00;101664.53;;;-2.99;100.00
36964;BME280;22878;48.616;35.326;2022-12-07T14:35:29;101663.34;;;-3.01;100.00
36964;BME280;22878;48.616;35.326;2022-12-07T14:37:56;101661.53;;;-3.00;100.00
36964;BME280;22878;48.616;35.326;2022-12-07T14:40:27;101656.50;;;-3.07;100.00
36964;BME280;22878;48.616;35.326;2022-12-07T14:45:32;101656.71;;;-3.05;100.00
36964;BME280;22878;48.616;35.326;2022-12-07T14:47:58;101654.89;;;-3.04;100.00
36964;BME280;22878;48.616;35.326;2022-12-07T14:50:24;101652.88;;;-3.06;100.00
36964;BME280;22878;48.616;35.326;2022-12-07T14:53:02;101653.87;;;-3.07;100.00
36964;BME280;22878;48.616;35.326;2022-12-07T14:55:31;101654.70;;;-3.07;100.00